sensor_id;sensor_type;location;lat;lon;timestamp;P1;durP1;ratioP1;P2;durP2;ratioP2
53261;SDS011;39658;51.090;-1.786;2023-11-19T00:00:11;36.35;;;6.53;;
53261;SDS011;39658;51.090;-1.786;2023-11-19T00:02:40;39.03;;;4.82;;
53261;SDS011;39658;51.090;-1.786;2023-11-19T00:05:08;35.08;;;5.22;;
53261;SDS011;39658;51.090;-1.786;2023-11-19T00:07:36;36.63;;;5.80;;
53261;SDS011;39658;51.090;-1.786;2023-11-19T00:10:06;25.38;;;3.85;;
53261;SDS011;39658;51.090;-1.786;2023-11-19T00:12:35;30.33;;;5.10;;
53261;SDS011;39658;51.090;-1.786;2023-11-19T00:15:02;29.92;;;3.97;;
53261;SDS011;39658;51.090;-1.786;2023-11-19T00:17:29;38.95;;;7.43;;
53261;SDS011;39658;51.090;-1.786;2023-11-19T00:19:58;46.20;;;6.97;;
53261;SDS011;39658;51.090;-1.786;2023-11-19T00:22:24;36.72;;;6.43;;
53261;SDS011;39658;51.090;-1.786;2023-11-19T00:24:51;38.95;;;5.22;;
53261;SDS011;39658;51.090;-1.786;2023-11-19T00:27:18;29.05;;;4.82;;
53261;SDS011;39658;51.090;-1.786;2023-11-19T00:29:45;32.45;;;5.45;;
53261;SDS011;39658;51.090;-1.786;2023-11-19T00:32:12;30.10;;;4.90;;
53261;SDS011;39658;51.090;-1.786;2023-11-19T00:34:40;32.80;;;4.18;;
53261;SDS011;39658;51.090;-1.786;2023-11-19T00:37:08;38.75;;;5.95;;
53261;SDS011;39658;51.090;-1.786;2023-11-19T00:39:35;31.02;;;5.63;;
53261;SDS011;39658;51.090;-1.786;2023-11-19T00:42:02;34.80;;;5.50;;
53261;SDS011;39658;51.090;-1.786;2023-11-19T00:44:30;35.70;;;4.85;;
53261;SDS011;39658;51.090;-1.786;2023-11-19T00:46:56;45.10;;;5.20;;
53261;SDS011;39658;51.090;-1.786;2023-11-19T00:49:24;52.83;;;5.70;;
53261;SDS011;39658;51.090;-1.786;2023-11-19T00:51:51;35.95;;;4.63;;
53261;SDS011;39658;51.090;-1.786;2023-11-19T00:54:19;35.80;;;5.45;;
53261;SDS011;39658;51.090;-1.786;2023-11-19T00:56:46;36.17;;;4.80;;
53261;SDS011;39658;51.090;-1.786;2023-11-19T00:59:13;52.42;;;5.45;;
53261;SDS011;39658;51.090;-1.786;2023-11-19T01:01:40;37.72;;;5.97;;
53261;SDS011;39658;51.090;-1.786;2023-11-19T01:04:07;35.60;;;6.40;;
53261;SDS011;39658;51.090;-1.786;2023-11-19T01:06:34;28.45;;;4.45;;
53261;SDS011;39658;51.090;-1.786;2023-11-19T01:09:00;32.40;;;4.47;;
53261;SDS011;39658;51.090;-1.786;2023-11-19T01:11:29;43.72;;;7.20;;
53261;SDS011;39658;51.090;-1.786;2023-11-19T01:13:55;32.65;;;4.93;;
53261;SDS011;39658;51.090;-1.786;2023-11-19T01:16:22;37.38;;;4.15;;
53261;SDS011;39658;51.090;-1.786;2023-11-19T01:18:49;40.60;;;5.25;;
53261;SDS011;39658;51.090;-1.786;2023-11-19T01:21:16;30.25;;;4.60;;
53261;SDS011;39658;51.090;-1.786;2023-11-19T01:23:42;35.35;;;4.90;;
53261;SDS011;39658;51.090;-1.786;2023-11-19T01:26:09;26.10;;;3.70;;
53261;SDS011;39658;51.090;-1.786;2023-11-19T01:28:39;38.85;;;6.55;;
53261;SDS011;39658;51.090;-1.786;2023-11-19T01:31:10;38.33;;;4.15;;
53261;SDS011;39658;51.090;-1.786;2023-11-19T01:33:37;32.35;;;4.70;;
53261;SDS011;39658;51.090;-1.786;2023-11-19T01:36:05;29.88;;;4.13;;
53261;SDS011;39658;51.090;-1.786;2023-11-19T01:38:33;35.20;;;3.70;;
53261;SDS011;39658;51.090;-1.786;2023-11-19T01:41:00;33.97;;;5.28;;
53261;SDS011;39658;51.090;-1.786;2023-11-19T01:43:32;32.90;;;4.60;;
53261;SDS011;39658;51.090;-1.786;2023-11-19T01:46:00;37.15;;;4.20;;
53261;SDS011;39658;51.090;-1.786;2023-11-19T01:48:28;32.58;;;3.88;;
53261;SDS011;39658;51.090;-1.786;2023-11-19T01:50:55;25.65;;;4.53;;
53261;SDS011;39658;51.090;-1.786;2023-11-19T01:53:23;47.08;;;4.78;;
53261;SDS011;39658;51.090;-1.786;2023-11-19T01:55:50;20.63;;;3.88;;
53261;SDS011;39658;51.090;-1.786;2023-11-19T01:58:18;27.85;;;4.75;;
53261;SDS011;39658;51.090;-1.786;2023-11-19T02:00:45;33.05;;;5.55;;
53261;SDS011;39658;51.090;-1.786;2023-11-19T02:03:14;36.88;;;4.50;;
53261;SDS011;39658;51.090;-1.786;2023-11-19T02:05:41;40.28;;;6.15;;
53261;SDS011;39658;51.090;-1.786;2023-11-19T02:08:08;36.15;;;5.18;;
53261;SDS011;39658;51.090;-1.786;2023-11-19T02:10:35;31.15;;;4.30;;
53261;SDS011;39658;51.090;-1.786;2023-11-19T02:13:02;44.00;;;4.47;;
53261;SDS011;39658;51.090;-1.786;2023-11-19T02:15:31;32.97;;;4.78;;
53261;SDS011;39658;51.090;-1.786;2023-11-19T02:20:48;34.40;;;4.57;;
53261;SDS011;39658;51.090;-1.786;2023-11-19T02:23:15;35.42;;;4.32;;
53261;SDS011;39658;51.090;-1.786;2023-11-19T02:25:45;36.50;;;5.00;;
53261;SDS011;39658;51.090;-1.786;2023-11-19T02:28:20;28.98;;;3.88;;
53261;SDS011;39658;51.090;-1.786;2023-11-19T02:30:47;40.15;;;5.03;;
53261;SDS011;39658;51.090;-1.786;2023-11-19T02:33:13;33.30;;;4.13;;
53261;SDS011;39658;51.090;-1.786;2023-11-19T02:35:40;34.72;;;5.07;;
53261;SDS011;39658;51.090;-1.786;2023-11-19T02:38:07;36.47;;;5.70;;
53261;SDS011;39658;51.090;-1.786;2023-11-19T02:40:34;34.40;;;5.50;;
53261;SDS011;39658;51.090;-1.786;2023-11-19T02:43:01;42.55;;;5.32;;
53261;SDS011;39658;51.090;-1.786;2023-11-19T02:45:31;37.08;;;5.53;;
53261;SDS011;39658;51.090;-1.786;2023-11-19T02:47:57;35.45;;;5.10;;
53261;SDS011;39658;51.090;-1.786;2023-11-19T02:50:26;31.33;;;4.78;;
53261;SDS011;39658;51.090;-1.786;2023-11-19T02:52:54;16.38;;;3.95;;
53261;SDS011;39658;51.090;-1.786;2023-11-19T02:55:22;36.72;;;5.65;;
53261;SDS011;39658;51.090;-1.786;2023-11-19T02:57:49;34.42;;;5.40;;
53261;SDS011;39658;51.090;-1.786;2023-11-19T03:00:19;35.70;;;4.65;;
53261;SDS011;39658;51.090;-1.786;2023-11-19T03:02:51;26.55;;;3.80;;
53261;SDS011;39658;51.090;-1.786;2023-11-19T03:05:24;41.83;;;4.80;;
53261;SDS011;39658;51.090;-1.786;2023-11-19T03:07:55;26.42;;;3.85;;
53261;SDS011;39658;51.090;-1.786;2023-11-19T03:10:21;37.10;;;5.57;;
53261;SDS011;39658;51.090;-1.786;2023-11-19T03:12:49;24.65;;;4.28;;
53261;SDS011;39658;51.090;-1.786;2023-11-19T03:15:16;45.53;;;5.43;;
53261;SDS011;39658;51.090;-1.786;2023-11-19T03:17:42;32.78;;;4.00;;
53261;SDS011;39658;51.090;-1.786;2023-11-19T03:20:11;31.98;;;5.20;;
53261;SDS011;39658;51.090;-1.786;2023-11-19T03:22:40;20.17;;;2.47;;
53261;SDS011;39658;51.090;-1.786;2023-11-19T03:25:08;33.58;;;5.05;;
53261;SDS011;39658;51.090;-1.786;2023-11-19T03:27:34;35.97;;;4.75;;
53261;SDS011;39658;51.090;-1.786;2023-11-19T03:30:02;29.17;;;3.47;;
53261;SDS011;39658;51.090;-1.786;2023-11-19T03:32:30;33.20;;;4.38;;
53261;SDS011;39658;51.090;-1.786;2023-11-19T03:34:57;29.17;;;4.00;;
53261;SDS011;39658;51.090;-1.786;2023-11-19T03:37:26;28.92;;;4.45;;
53261;SDS011;39658;51.090;-1.786;2023-11-19T03:39:53;21.48;;;3.80;;
53261;SDS011;39658;51.090;-1.786;2023-11-19T03:42:20;33.08;;;5.22;;
53261;SDS011;39658;51.090;-1.786;2023-11-19T03:44:47;30.05;;;4.72;;
53261;SDS011;39658;51.090;-1.786;2023-11-19T03:47:15;30.80;;;4.07;;
53261;SDS011;39658;51.090;-1.786;2023-11-19T03:49:42;33.38;;;5.10;;
53261;SDS011;39658;51.090;-1.786;2023-11-19T03:52:09;21.27;;;3.35;;
53261;SDS011;39658;51.090;-1.786;2023-11-19T03:54:37;29.33;;;4.95;;
53261;SDS011;39658;51.090;-1.786;2023-11-19T03:57:04;36.40;;;4.57;;
53261;SDS011;39658;51.090;-1.786;2023-11-19T03:59:31;25.30;;;3.10;;
53261;SDS011;39658;51.090;-1.786;2023-11-19T04:01:58;45.17;;;5.45;;
53261;SDS011;39658;51.090;-1.786;2023-11-19T04:04:25;31.60;;;3.30;;
53261;SDS011;39658;51.090;-1.786;2023-11-19T04:06:52;27.10;;;4.10;;
53261;SDS011;39658;51.090;-1.786;2023-11-19T04:09:19;38.72;;;4.45;;
53261;SDS011;39658;51.090;-1.786;2023-11-19T04:11:47;25.70;;;4.50;;
53261;SDS011;39658;51.090;-1.786;2023-11-19T04:14:14;16.83;;;3.17;;
53261;SDS011;39658;51.090;-1.786;2023-11-19T04:16:43;26.52;;;3.20;;
53261;SDS011;39658;51.090;-1.786;2023-11-19T04:19:10;31.52;;;5.40;;
53261;SDS011;39658;51.090;-1.786;2023-11-19T04:21:37;29.20;;;4.18;;
53261;SDS011;39658;51.090;-1.786;2023-11-19T04:24:06;32.55;;;4.57;;
53261;SDS011;39658;51.090;-1.786;2023-11-19T04:26:33;31.05;;;3.83;;
53261;SDS011;39658;51.090;-1.786;2023-11-19T04:29:03;38.78;;;4.70;;
53261;SDS011;39658;51.090;-1.786;2023-11-19T04:31:30;32.45;;;3.85;;
53261;SDS011;39658;51.090;-1.786;2023-11-19T04:33:57;17.17;;;2.75;;
53261;SDS011;39658;51.090;-1.786;2023-11-19T04:36:25;27.52;;;4.68;;
53261;SDS011;39658;51.090;-1.786;2023-11-19T04:38:52;28.10;;;3.75;;
53261;SDS011;39658;51.090;-1.786;2023-11-19T04:41:19;23.63;;;5.03;;
53261;SDS011;39658;51.090;-1.786;2023-11-19T04:43:45;37.58;;;4.30;;
53261;SDS011;39658;51.090;-1.786;2023-11-19T04:46:14;35.55;;;5.00;;
53261;SDS011;39658;51.090;-1.786;2023-11-19T04:48:40;31.88;;;4.43;;
53261;SDS011;39658;51.090;-1.786;2023-11-19T04:51:07;40.65;;;5.10;;
53261;SDS011;39658;51.090;-1.786;2023-11-19T04:53:34;24.23;;;3.50;;
53261;SDS011;39658;51.090;-1.786;2023-11-19T04:56:06;28.35;;;3.38;;
53261;SDS011;39658;51.090;-1.786;2023-11-19T04:58:34;36.58;;;4.78;;
53261;SDS011;39658;51.090;-1.786;2023-11-19T05:01:01;30.10;;;3.40;;
53261;SDS011;39658;51.090;-1.786;2023-11-19T05:03:29;22.63;;;3.75;;
53261;SDS011;39658;51.090;-1.786;2023-11-19T05:05:56;16.95;;;3.92;;
53261;SDS011;39658;51.090;-1.786;2023-11-19T05:08:23;22.83;;;4.20;;
53261;SDS011;39658;51.090;-1.786;2023-11-19T05:10:50;15.02;;;2.97;;
53261;SDS011;39658;51.090;-1.786;2023-11-19T05:13:16;28.48;;;5.60;;
53261;SDS011;39658;51.090;-1.786;2023-11-19T05:15:43;39.78;;;3.70;;
53261;SDS011;39658;51.090;-1.786;2023-11-19T05:18:10;28.98;;;3.25;;
53261;SDS011;39658;51.090;-1.786;2023-11-19T05:20:38;19.75;;;2.95;;
53261;SDS011;39658;51.090;-1.786;2023-11-19T05:23:05;21.95;;;3.13;;
53261;SDS011;39658;51.090;-1.786;2023-11-19T05:25:32;20.90;;;3.78;;
53261;SDS011;39658;51.090;-1.786;2023-11-19T05:27:58;19.77;;;3.05;;
53261;SDS011;39658;51.090;-1.786;2023-11-19T05:30:25;23.55;;;3.25;;
53261;SDS011;39658;51.090;-1.786;2023-11-19T05:32:52;36.45;;;4.03;;
53261;SDS011;39658;51.090;-1.786;2023-11-19T05:35:18;26.75;;;3.30;;
53261;SDS011;39658;51.090;-1.786;2023-11-19T05:37:46;24.73;;;3.05;;
53261;SDS011;39658;51.090;-1.786;2023-11-19T05:40:15;20.92;;;3.28;;
53261;SDS011;39658;51.090;-1.786;2023-11-19T05:42:42;18.92;;;2.75;;
53261;SDS011;39658;51.090;-1.786;2023-11-19T05:45:11;12.27;;;2.67;;
53261;SDS011;39658;51.090;-1.786;2023-11-19T05:47:38;14.23;;;2.10;;
53261;SDS011;39658;51.090;-1.786;2023-11-19T05:50:05;19.77;;;3.17;;
53261;SDS011;39658;51.090;-1.786;2023-11-19T05:52:33;18.55;;;2.83;;
53261;SDS011;39658;51.090;-1.786;2023-11-19T05:55:01;16.80;;;2.80;;
53261;SDS011;39658;51.090;-1.786;2023-11-19T05:57:29;15.98;;;3.03;;
53261;SDS011;39658;51.090;-1.786;2023-11-19T05:59:56;12.32;;;1.88;;
53261;SDS011;39658;51.090;-1.786;2023-11-19T06:02:24;16.05;;;2.42;;
53261;SDS011;39658;51.090;-1.786;2023-11-19T06:04:52;19.38;;;3.20;;
53261;SDS011;39658;51.090;-1.786;2023-11-19T06:07:19;25.38;;;3.80;;
53261;SDS011;39658;51.090;-1.786;2023-11-19T06:09:46;15.50;;;2.40;;
53261;SDS011;39658;51.090;-1.786;2023-11-19T06:12:14;16.15;;;3.53;;
53261;SDS011;39658;51.090;-1.786;2023-11-19T06:14:41;21.30;;;3.38;;
53261;SDS011;39658;51.090;-1.786;2023-11-19T06:17:07;16.83;;;2.75;;
53261;SDS011;39658;51.090;-1.786;2023-11-19T06:19:36;17.30;;;2.72;;
53261;SDS011;39658;51.090;-1.786;2023-11-19T06:22:03;18.80;;;3.50;;
53261;SDS011;39658;51.090;-1.786;2023-11-19T06:24:30;25.67;;;3.10;;
53261;SDS011;39658;51.090;-1.786;2023-11-19T06:26:56;16.65;;;2.80;;
53261;SDS011;39658;51.090;-1.786;2023-11-19T06:29:24;15.05;;;2.42;;
53261;SDS011;39658;51.090;-1.786;2023-11-19T06:31:51;21.67;;;3.40;;
53261;SDS011;39658;51.090;-1.786;2023-11-19T06:34:18;24.08;;;4.28;;
53261;SDS011;39658;51.090;-1.786;2023-11-19T06:36:45;16.15;;;2.25;;
53261;SDS011;39658;51.090;-1.786;2023-11-19T06:39:12;22.25;;;2.75;;
53261;SDS011;39658;51.090;-1.786;2023-11-19T06:41:40;23.23;;;4.32;;
53261;SDS011;39658;51.090;-1.786;2023-11-19T06:44:11;13.40;;;2.03;;
53261;SDS011;39658;51.090;-1.786;2023-11-19T06:46:39;23.20;;;3.03;;
53261;SDS011;39658;51.090;-1.786;2023-11-19T06:49:06;23.98;;;3.72;;
53261;SDS011;39658;51.090;-1.786;2023-11-19T06:51:33;15.68;;;2.83;;
53261;SDS011;39658;51.090;-1.786;2023-11-19T06:54:00;17.45;;;3.30;;
53261;SDS011;39658;51.090;-1.786;2023-11-19T06:56:27;23.67;;;3.03;;
53261;SDS011;39658;51.090;-1.786;2023-11-19T06:58:53;9.80;;;1.45;;
53261;SDS011;39658;51.090;-1.786;2023-11-19T07:01:20;17.23;;;3.03;;
53261;SDS011;39658;51.090;-1.786;2023-11-19T07:03:48;13.02;;;3.13;;
53261;SDS011;39658;51.090;-1.786;2023-11-19T07:06:16;13.77;;;2.95;;
53261;SDS011;39658;51.090;-1.786;2023-11-19T07:08:43;22.50;;;2.70;;
53261;SDS011;39658;51.090;-1.786;2023-11-19T07:11:11;11.55;;;1.80;;
53261;SDS011;39658;51.090;-1.786;2023-11-19T07:13:39;16.80;;;2.70;;
53261;SDS011;39658;51.090;-1.786;2023-11-19T07:16:06;21.92;;;2.75;;
53261;SDS011;39658;51.090;-1.786;2023-11-19T07:18:35;17.38;;;2.75;;
53261;SDS011;39658;51.090;-1.786;2023-11-19T07:21:03;17.30;;;3.03;;
53261;SDS011;39658;51.090;-1.786;2023-11-19T07:23:30;22.52;;;3.05;;
53261;SDS011;39658;51.090;-1.786;2023-11-19T07:25:59;15.18;;;2.45;;
53261;SDS011;39658;51.090;-1.786;2023-11-19T07:28:26;16.90;;;2.28;;
53261;SDS011;39658;51.090;-1.786;2023-11-19T07:30:53;17.35;;;2.90;;
53261;SDS011;39658;51.090;-1.786;2023-11-19T07:33:21;20.90;;;3.13;;
53261;SDS011;39658;51.090;-1.786;2023-11-19T07:35:48;13.45;;;2.53;;
53261;SDS011;39658;51.090;-1.786;2023-11-19T07:38:17;24.83;;;4.13;;
53261;SDS011;39658;51.090;-1.786;2023-11-19T07:40:44;29.63;;;3.58;;
53261;SDS011;39658;51.090;-1.786;2023-11-19T07:43:11;21.35;;;4.05;;
53261;SDS011;39658;51.090;-1.786;2023-11-19T07:45:37;21.83;;;2.88;;
53261;SDS011;39658;51.090;-1.786;2023-11-19T07:48:04;12.55;;;2.35;;
53261;SDS011;39658;51.090;-1.786;2023-11-19T07:50:31;18.17;;;3.40;;
53261;SDS011;39658;51.090;-1.786;2023-11-19T07:52:58;12.30;;;2.60;;
53261;SDS011;39658;51.090;-1.786;2023-11-19T07:55:26;21.65;;;3.95;;
53261;SDS011;39658;51.090;-1.786;2023-11-19T07:57:53;20.80;;;2.97;;
53261;SDS011;39658;51.090;-1.786;2023-11-19T08:00:20;17.67;;;3.88;;
53261;SDS011;39658;51.090;-1.786;2023-11-19T08:02:47;18.83;;;2.42;;
53261;SDS011;39658;51.090;-1.786;2023-11-19T08:05:14;29.58;;;3.20;;
53261;SDS011;39658;51.090;-1.786;2023-11-19T08:07:41;27.25;;;3.60;;
53261;SDS011;39658;51.090;-1.786;2023-11-19T08:10:07;23.55;;;4.85;;
53261;SDS011;39658;51.090;-1.786;2023-11-19T08:12:37;39.60;;;5.80;;
53261;SDS011;39658;51.090;-1.786;2023-11-19T08:15:04;31.70;;;3.95;;
53261;SDS011;39658;51.090;-1.786;2023-11-19T08:17:32;24.15;;;3.78;;
53261;SDS011;39658;51.090;-1.786;2023-11-19T08:19:58;22.20;;;3.83;;
53261;SDS011;39658;51.090;-1.786;2023-11-19T08:22:26;16.15;;;2.42;;
53261;SDS011;39658;51.090;-1.786;2023-11-19T08:24:53;20.52;;;2.80;;
53261;SDS011;39658;51.090;-1.786;2023-11-19T08:27:19;32.08;;;3.08;;
53261;SDS011;39658;51.090;-1.786;2023-11-19T08:29:53;20.10;;;2.83;;
53261;SDS011;39658;51.090;-1.786;2023-11-19T08:32:20;25.35;;;2.85;;
53261;SDS011;39658;51.090;-1.786;2023-11-19T08:34:47;21.77;;;3.25;;
53261;SDS011;39658;51.090;-1.786;2023-11-19T08:37:14;20.00;;;3.42;;
53261;SDS011;39658;51.090;-1.786;2023-11-19T08:39:43;22.38;;;3.15;;
53261;SDS011;39658;51.090;-1.786;2023-11-19T08:42:09;14.93;;;2.42;;
53261;SDS011;39658;51.090;-1.786;2023-11-19T08:44:36;19.13;;;3.33;;
53261;SDS011;39658;51.090;-1.786;2023-11-19T08:47:04;17.75;;;2.92;;
53261;SDS011;39658;51.090;-1.786;2023-11-19T08:49:31;10.10;;;2.15;;
53261;SDS011;39658;51.090;-1.786;2023-11-19T08:51:58;17.00;;;2.88;;
53261;SDS011;39658;51.090;-1.786;2023-11-19T08:54:25;31.35;;;3.67;;
53261;SDS011;39658;51.090;-1.786;2023-11-19T08:56:51;10.82;;;2.50;;
53261;SDS011;39658;51.090;-1.786;2023-11-19T08:59:18;18.15;;;2.78;;
53261;SDS011;39658;51.090;-1.786;2023-11-19T09:01:45;16.83;;;3.35;;
53261;SDS011;39658;51.090;-1.786;2023-11-19T09:04:13;14.95;;;3.05;;
53261;SDS011;39658;51.090;-1.786;2023-11-19T09:06:41;18.73;;;2.80;;
53261;SDS011;39658;51.090;-1.786;2023-11-19T09:09:07;22.65;;;3.55;;
53261;SDS011;39658;51.090;-1.786;2023-11-19T09:11:34;16.98;;;3.53;;
53261;SDS011;39658;51.090;-1.786;2023-11-19T09:14:02;20.25;;;2.67;;
53261;SDS011;39658;51.090;-1.786;2023-11-19T09:16:29;24.52;;;2.97;;
53261;SDS011;39658;51.090;-1.786;2023-11-19T09:18:56;18.52;;;2.78;;
53261;SDS011;39658;51.090;-1.786;2023-11-19T09:21:25;23.70;;;3.15;;
53261;SDS011;39658;51.090;-1.786;2023-11-19T09:23:52;13.32;;;2.45;;
53261;SDS011;39658;51.090;-1.786;2023-11-19T09:26:19;17.90;;;2.47;;
53261;SDS011;39658;51.090;-1.786;2023-11-19T09:28:46;13.45;;;2.25;;
53261;SDS011;39658;51.090;-1.786;2023-11-19T09:31:13;12.90;;;2.40;;
53261;SDS011;39658;51.090;-1.786;2023-11-19T09:33:40;17.17;;;2.28;;
53261;SDS011;39658;51.090;-1.786;2023-11-19T09:36:06;16.20;;;2.28;;
53261;SDS011;39658;51.090;-1.786;2023-11-19T09:38:35;13.02;;;2.40;;
53261;SDS011;39658;51.090;-1.786;2023-11-19T09:41:03;11.77;;;2.17;;
53261;SDS011;39658;51.090;-1.786;2023-11-19T09:43:33;18.13;;;2.55;;
53261;SDS011;39658;51.090;-1.786;2023-11-19T09:46:02;15.90;;;2.15;;
53261;SDS011;39658;51.090;-1.786;2023-11-19T09:48:32;14.63;;;2.75;;
53261;SDS011;39658;51.090;-1.786;2023-11-19T09:50:59;13.05;;;2.22;;
53261;SDS011;39658;51.090;-1.786;2023-11-19T09:53:27;21.38;;;3.55;;
53261;SDS011;39658;51.090;-1.786;2023-11-19T09:55:55;22.42;;;2.33;;
53261;SDS011;39658;51.090;-1.786;2023-11-19T09:58:22;22.38;;;3.97;;
53261;SDS011;39658;51.090;-1.786;2023-11-19T10:00:49;19.25;;;3.17;;
53261;SDS011;39658;51.090;-1.786;2023-11-19T10:03:17;24.25;;;3.40;;
53261;SDS011;39658;51.090;-1.786;2023-11-19T10:05:44;18.02;;;2.88;;
53261;SDS011;39658;51.090;-1.786;2023-11-19T10:08:10;18.60;;;2.63;;
53261;SDS011;39658;51.090;-1.786;2023-11-19T10:10:39;15.13;;;2.22;;
53261;SDS011;39658;51.090;-1.786;2023-11-19T10:13:07;11.48;;;2.17;;
53261;SDS011;39658;51.090;-1.786;2023-11-19T10:15:35;16.27;;;2.50;;
53261;SDS011;39658;51.090;-1.786;2023-11-19T10:18:03;16.42;;;3.50;;
53261;SDS011;39658;51.090;-1.786;2023-11-19T10:20:34;12.32;;;2.67;;
53261;SDS011;39658;51.090;-1.786;2023-11-19T10:23:02;24.02;;;2.63;;
53261;SDS011;39658;51.090;-1.786;2023-11-19T10:25:29;16.60;;;2.15;;
53261;SDS011;39658;51.090;-1.786;2023-11-19T10:27:58;23.17;;;2.95;;
53261;SDS011;39658;51.090;-1.786;2023-11-19T10:30:27;11.15;;;2.38;;
53261;SDS011;39658;51.090;-1.786;2023-11-19T10:33:04;24.08;;;3.25;;
53261;SDS011;39658;51.090;-1.786;2023-11-19T10:35:32;20.95;;;3.13;;
53261;SDS011;39658;51.090;-1.786;2023-11-19T10:37:59;21.33;;;3.35;;
53261;SDS011;39658;51.090;-1.786;2023-11-19T10:40:37;16.85;;;2.28;;
53261;SDS011;39658;51.090;-1.786;2023-11-19T10:43:05;12.43;;;2.22;;
53261;SDS011;39658;51.090;-1.786;2023-11-19T10:45:34;17.73;;;3.58;;
53261;SDS011;39658;51.090;-1.786;2023-11-19T10:48:01;24.40;;;3.20;;
53261;SDS011;39658;51.090;-1.786;2023-11-19T10:50:31;15.15;;;2.30;;
53261;SDS011;39658;51.090;-1.786;2023-11-19T10:52:59;22.42;;;3.15;;
53261;SDS011;39658;51.090;-1.786;2023-11-19T10:55:27;15.57;;;2.55;;
53261;SDS011;39658;51.090;-1.786;2023-11-19T10:57:58;18.15;;;3.00;;
53261;SDS011;39658;51.090;-1.786;2023-11-19T11:00:26;12.73;;;2.72;;
53261;SDS011;39658;51.090;-1.786;2023-11-19T11:02:58;11.55;;;1.65;;
53261;SDS011;39658;51.090;-1.786;2023-11-19T11:05:27;12.95;;;1.98;;
53261;SDS011;39658;51.090;-1.786;2023-11-19T11:07:58;13.07;;;2.35;;
53261;SDS011;39658;51.090;-1.786;2023-11-19T11:10:27;11.70;;;2.30;;
53261;SDS011;39658;51.090;-1.786;2023-11-19T11:12:59;17.05;;;2.63;;
53261;SDS011;39658;51.090;-1.786;2023-11-19T11:15:29;11.07;;;2.15;;
53261;SDS011;39658;51.090;-1.786;2023-11-19T11:18:00;5.45;;;1.02;;
53261;SDS011;39658;51.090;-1.786;2023-11-19T11:20:28;12.13;;;2.03;;
53261;SDS011;39658;51.090;-1.786;2023-11-19T11:23:10;9.88;;;1.73;;
53261;SDS011;39658;51.090;-1.786;2023-11-19T11:25:49;13.57;;;2.28;;
53261;SDS011;39658;51.090;-1.786;2023-11-19T11:28:26;10.02;;;2.08;;
53261;SDS011;39658;51.090;-1.786;2023-11-19T11:31:24;10.70;;;2.33;;
53261;SDS011;39658;51.090;-1.786;2023-11-19T11:34:08;12.57;;;2.10;;
53261;SDS011;39658;51.090;-1.786;2023-11-19T11:36:53;11.10;;;2.28;;
53261;SDS011;39658;51.090;-1.786;2023-11-19T11:39:29;12.65;;;1.85;;
53261;SDS011;39658;51.090;-1.786;2023-11-19T11:44:57;12.80;;;2.17;;
53261;SDS011;39658;51.090;-1.786;2023-11-19T11:47:25;12.77;;;2.40;;
53261;SDS011;39658;51.090;-1.786;2023-11-19T11:49:53;19.70;;;2.40;;
53261;SDS011;39658;51.090;-1.786;2023-11-19T11:52:20;8.48;;;1.58;;
53261;SDS011;39658;51.090;-1.786;2023-11-19T11:54:47;14.73;;;1.70;;
53261;SDS011;39658;51.090;-1.786;2023-11-19T11:57:14;11.68;;;1.98;;
53261;SDS011;39658;51.090;-1.786;2023-11-19T11:59:46;9.48;;;1.67;;
53261;SDS011;39658;51.090;-1.786;2023-11-19T12:02:14;11.55;;;2.25;;
53261;SDS011;39658;51.090;-1.786;2023-11-19T12:04:43;8.27;;;1.85;;
53261;SDS011;39658;51.090;-1.786;2023-11-19T12:07:16;16.52;;;2.40;;
53261;SDS011;39658;51.090;-1.786;2023-11-19T12:09:46;7.68;;;1.25;;
53261;SDS011;39658;51.090;-1.786;2023-11-19T12:12:17;6.55;;;1.08;;
53261;SDS011;39658;51.090;-1.786;2023-11-19T12:15:02;11.55;;;2.83;;
53261;SDS011;39658;51.090;-1.786;2023-11-19T12:17:42;7.32;;;2.03;;
53261;SDS011;39658;51.090;-1.786;2023-11-19T12:20:10;10.32;;;1.60;;
53261;SDS011;39658;51.090;-1.786;2023-11-19T12:22:39;14.32;;;1.77;;
53261;SDS011;39658;51.090;-1.786;2023-11-19T12:25:07;10.85;;;1.23;;
53261;SDS011;39658;51.090;-1.786;2023-11-19T12:27:35;12.68;;;2.08;;
53261;SDS011;39658;51.090;-1.786;2023-11-19T12:30:01;6.45;;;0.95;;
53261;SDS011;39658;51.090;-1.786;2023-11-19T12:32:37;11.23;;;2.00;;
53261;SDS011;39658;51.090;-1.786;2023-11-19T12:35:05;10.15;;;1.38;;
53261;SDS011;39658;51.090;-1.786;2023-11-19T12:37:39;9.98;;;1.55;;
53261;SDS011;39658;51.090;-1.786;2023-11-19T12:40:11;6.88;;;2.08;;
53261;SDS011;39658;51.090;-1.786;2023-11-19T12:42:39;9.60;;;2.08;;
53261;SDS011;39658;51.090;-1.786;2023-11-19T12:45:07;4.93;;;0.73;;
53261;SDS011;39658;51.090;-1.786;2023-11-19T12:47:35;7.05;;;1.27;;
53261;SDS011;39658;51.090;-1.786;2023-11-19T12:50:03;4.90;;;1.42;;
53261;SDS011;39658;51.090;-1.786;2023-11-19T12:52:31;8.90;;;1.30;;
53261;SDS011;39658;51.090;-1.786;2023-11-19T12:55:01;8.57;;;1.80;;
53261;SDS011;39658;51.090;-1.786;2023-11-19T12:57:37;8.55;;;1.30;;
53261;SDS011;39658;51.090;-1.786;2023-11-19T13:00:05;6.03;;;1.10;;
53261;SDS011;39658;51.090;-1.786;2023-11-19T13:02:45;5.50;;;1.20;;
53261;SDS011;39658;51.090;-1.786;2023-11-19T13:05:26;17.60;;;1.40;;
53261;SDS011;39658;51.090;-1.786;2023-11-19T13:07:59;11.25;;;1.73;;
53261;SDS011;39658;51.090;-1.786;2023-11-19T13:10:28;6.20;;;1.23;;
53261;SDS011;39658;51.090;-1.786;2023-11-19T13:13:05;9.20;;;1.13;;
53261;SDS011;39658;51.090;-1.786;2023-11-19T13:15:33;2.90;;;0.40;;
53261;SDS011;39658;51.090;-1.786;2023-11-19T13:18:01;1.85;;;0.65;;
53261;SDS011;39658;51.090;-1.786;2023-11-19T13:20:28;3.15;;;0.60;;
53261;SDS011;39658;51.090;-1.786;2023-11-19T13:22:57;4.72;;;0.70;;
53261;SDS011;39658;51.090;-1.786;2023-11-19T13:25:25;4.03;;;0.88;;
53261;SDS011;39658;51.090;-1.786;2023-11-19T13:27:53;7.15;;;1.02;;
53261;SDS011;39658;51.090;-1.786;2023-11-19T13:30:20;2.00;;;0.40;;
53261;SDS011;39658;51.090;-1.786;2023-11-19T13:32:48;1.65;;;0.50;;
53261;SDS011;39658;51.090;-1.786;2023-11-19T13:35:15;3.45;;;0.70;;
53261;SDS011;39658;51.090;-1.786;2023-11-19T13:37:43;4.05;;;0.75;;
53261;SDS011;39658;51.090;-1.786;2023-11-19T13:40:11;4.07;;;0.95;;
53261;SDS011;39658;51.090;-1.786;2023-11-19T13:42:39;2.78;;;0.50;;
53261;SDS011;39658;51.090;-1.786;2023-11-19T13:45:09;2.00;;;0.90;;
53261;SDS011;39658;51.090;-1.786;2023-11-19T13:47:38;1.48;;;0.50;;
53261;SDS011;39658;51.090;-1.786;2023-11-19T13:50:07;2.25;;;0.75;;
53261;SDS011;39658;51.090;-1.786;2023-11-19T13:52:35;3.00;;;0.43;;
53261;SDS011;39658;51.090;-1.786;2023-11-19T13:55:04;1.08;;;0.40;;
53261;SDS011;39658;51.090;-1.786;2023-11-19T13:57:31;3.65;;;0.63;;
53261;SDS011;39658;51.090;-1.786;2023-11-19T13:59:59;4.80;;;0.75;;
53261;SDS011;39658;51.090;-1.786;2023-11-19T14:02:28;3.97;;;0.75;;
53261;SDS011;39658;51.090;-1.786;2023-11-19T14:04:55;2.50;;;0.75;;
53261;SDS011;39658;51.090;-1.786;2023-11-19T14:07:22;1.17;;;0.30;;
53261;SDS011;39658;51.090;-1.786;2023-11-19T14:09:49;6.22;;;1.25;;
53261;SDS011;39658;51.090;-1.786;2023-11-19T14:12:16;3.28;;;0.70;;
53261;SDS011;39658;51.090;-1.786;2023-11-19T14:14:42;3.10;;;0.73;;
53261;SDS011;39658;51.090;-1.786;2023-11-19T14:17:09;3.50;;;0.60;;
53261;SDS011;39658;51.090;-1.786;2023-11-19T14:19:39;4.30;;;0.90;;
53261;SDS011;39658;51.090;-1.786;2023-11-19T14:22:06;2.92;;;0.65;;
53261;SDS011;39658;51.090;-1.786;2023-11-19T14:24:33;6.20;;;0.98;;
53261;SDS011;39658;51.090;-1.786;2023-11-19T14:27:00;6.80;;;1.20;;
53261;SDS011;39658;51.090;-1.786;2023-11-19T14:29:27;5.80;;;1.00;;
53261;SDS011;39658;51.090;-1.786;2023-11-19T14:31:54;2.90;;;1.10;;
53261;SDS011;39658;51.090;-1.786;2023-11-19T14:34:21;4.90;;;1.08;;